Time;durP1;ratioP1;P1;durP2;ratioP2;P2;SDS_P1;SDS_P2;PMS_P1;PMS_P2;Temp;Humidity;BMP_temperature;BMP_pressure;BME280_temperature;BME280_humidity;BME280_pressure;Samples;Min_cycle;Max_cycle;Signal;HPM_P1;HPM_P2
2022/08/26 03:41:40;;;;;;;11.43;4.87;;;;;;;20.00;100.00;100037.31;6646521;26;35464;-88
2022/08/26 03:44:43;;;;;;;12.18;5.40;;;;;;;19.98;100.00;100039.50;6657978;26;137254;-91
2022/08/26 03:47:46;;;;;;;10.38;5.35;;;;;;;19.99;100.00;100043.06;6662298;26;34480;-91
2022/08/26 03:50:50;;;;;;;10.25;4.97;;;;;;;19.98;100.00;100036.75;6642187;26;32355;-88
2022/08/26 03:53:53;;;;;;;8.32;5.18;;;;;;;19.98;100.00;100041.38;6662803;26;33979;-87
2022/08/26 03:56:58;;;;;;;9.50;5.07;;;;;;;19.96;100.00;100035.34;6662645;26;33902;-87
2022/08/26 04:00:06;;;;;;;8.52;5.10;;;;;;;19.98;100.00;100039.50;6662698;26;34422;-87
2022/08/26 04:03:10;;;;;;;8.93;5.00;;;;;;;20.00;100.00;100039.22;6666968;26;34126;-87
2022/08/26 04:06:19;;;;;;;10.30;5.37;;;;;;;19.99;100.00;100043.06;6646971;26;32513;-88
2022/08/26 04:09:24;;;;;;;10.23;5.78;;;;;;;20.00;100.00;100041.97;6645070;26;32576;-88
2022/08/26 04:12:27;;;;;;;8.27;5.47;;;;;;;19.98;100.00;100039.50;6666184;26;34802;-88
2022/08/26 04:15:29;;;;;;;11.80;5.28;;;;;;;19.98;100.00;100044.97;6650260;26;32218;-88
2022/08/26 04:18:36;;;;;;;9.02;5.20;;;;;;;20.00;100.00;100034.59;6672896;26;33796;-88
2022/08/26 04:21:51;;;;;;;6.87;4.90;;;;;;;20.03;100.00;100044.19;6681341;26;34362;-87
2022/08/26 04:24:54;;;;;;;9.70;4.65;;;;;;;20.07;100.00;100039.91;6668993;26;34396;-87
2022/08/26 04:27:57;;;;;;;8.80;5.18;;;;;;;20.14;100.00;100040.56;6664692;26;34544;-87
2022/08/26 04:31:00;;;;;;;8.40;4.95;;;;;;;20.15;100.00;100039.47;6664845;26;34611;-87
2022/08/26 04:34:04;;;;;;;11.60;5.05;;;;;;;20.19;100.00;100039.81;6653955;26;32428;-87
2022/08/26 04:37:07;;;;;;;12.55;5.15;;;;;;;20.22;100.00;100031.94;6681745;26;35117;-87
2022/08/26 04:40:14;;;;;;;12.40;5.15;;;;;;;20.27;100.00;100033.91;6669054;26;35647;-87
2022/08/26 04:43:17;;;;;;;8.13;5.22;;;;;;;20.31;100.00;100027.72;6614694;26;32613;-87
2022/08/26 04:46:22;;;;;;;7.72;4.90;;;;;;;20.41;100.00;100040.69;6634637;26;33682;-87
2022/08/26 04:49:25;;;;;;;8.07;4.82;;;;;;;20.49;100.00;100028.50;6614297;26;32228;-87
2022/08/26 04:52:29;;;;;;;11.40;5.07;;;;;;;20.58;100.00;100037.97;6634162;26;33947;-87
2022/08/26 04:55:32;;;;;;;7.30;4.80;;;;;;;20.69;100.00;100039.75;6634008;26;34607;-87
2022/08/26 04:58:47;;;;;;;10.20;4.93;;;;;;;20.80;100.00;100043.47;6634146;26;33834;-87
2022/08/26 05:01:51;;;;;;;9.02;5.40;;;;;;;20.90;100.00;100042.78;6634364;26;34145;-88
2022/08/26 05:04:54;;;;;;;9.15;4.65;;;;;;;20.99;100.00;100043.97;6640612;26;34060;-87
2022/08/26 05:07:57;;;;;;;8.18;5.45;;;;;;;21.08;100.00;100038.88;6644074;26;33997;-87
2022/08/26 05:11:03;;;;;;;7.32;5.07;;;;;;;21.20;100.00;100043.13;6653089;26;35181;-88
2022/08/26 05:14:07;;;;;;;11.90;5.12;;;;;;;21.34;100.00;100037.25;6638489;26;34556;-87
2022/08/26 05:17:10;;;;;;;8.13;4.65;;;;;;;21.44;100.00;100031.91;6634313;26;34230;-88
2022/08/26 05:20:16;;;;;;;9.98;4.57;;;;;;;21.50;100.00;100028.16;6614564;26;32957;-90
2022/08/26 05:23:27;;;;;;;10.23;4.40;;;;;;;21.61;100.00;100037.28;6634911;26;34004;-90
2022/08/26 05:26:30;;;;;;;7.32;4.20;;;;;;;21.71;100.00;100037.41;6636034;26;33888;-88
2022/08/26 05:29:33;;;;;;;8.63;4.25;;;;;;;21.83;100.00;100037.25;6635219;26;34699;-88
2022/08/26 05:32:38;;;;;;;12.88;4.78;;;;;;;21.94;100.00;100042.53;6636156;26;34568;-87
2022/08/26 05:35:41;;;;;;;10.65;4.82;;;;;;;22.07;98.35;100043.19;6635882;26;33974;-88
2022/08/26 05:38:45;;;;;;;8.05;4.40;;;;;;;22.20;97.81;100042.78;6635438;26;34920;-88
2022/08/26 05:41:48;;;;;;;9.48;4.12;;;;;;;22.31;97.70;100039.00;6605513;26;32912;-87
2022/08/26 05:44:52;;;;;;;7.43;4.03;;;;;;;22.44;96.05;100040.47;6607867;27;33982;-88
2022/08/26 05:47:57;;;;;;;8.73;4.15;;;;;;;22.53;93.75;100044.37;6608986;27;33791;-88
2022/08/26 05:51:06;;;;;;;6.93;4.12;;;;;;;22.66;93.33;100047.72;6610223;27;34727;-88
2022/08/26 05:54:10;;;;;;;11.95;4.43;;;;;;;22.84;92.44;100044.53;6607531;27;33296;-88
2022/08/26 05:57:13;;;;;;;6.22;4.45;;;;;;;22.97;89.89;100046.81;6608887;27;34123;-88
2022/08/26 06:00:16;;;;;;;9.07;4.47;;;;;;;23.05;89.03;100048.25;6612743;26;32638;-87
2022/08/26 06:03:18;;;;;;;11.90;5.03;;;;;;;23.15;87.88;100048.25;6608214;27;33542;-88
2022/08/26 06:06:31;;;;;;;9.40;5.22;;;;;;;23.31;87.74;100046.38;6609004;27;34025;-88
2022/08/26 06:09:37;;;;;;;8.55;4.37;;;;;;;23.43;87.99;100054.37;6610725;27;34657;-88
2022/08/26 06:12:41;;;;;;;9.45;4.72;;;;;;;23.49;86.83;100059.62;6612909;27;34805;-88
2022/08/26 06:15:48;;;;;;;6.20;4.18;;;;;;;23.61;86.47;100058.56;6609236;27;34063;-88
2022/08/26 06:18:52;;;;;;;11.23;3.80;;;;;;;23.74;84.43;100052.56;6608540;27;33006;-88
2022/08/26 06:21:55;;;;;;;9.10;4.32;;;;;;;23.88;84.55;100055.59;6607764;27;32619;-88
2022/08/26 06:28:19;;;;;;;14.55;4.03;;;;;;;24.17;79.94;100061.37;6609491;27;34232;-88
2022/08/26 06:31:23;;;;;;;7.35;4.28;;;;;;;24.44;76.69;100064.66;6609557;27;34858;-88
2022/08/26 06:34:27;;;;;;;10.57;3.60;;;;;;;24.53;75.03;100056.69;6609023;27;34936;-88
2022/08/26 06:37:32;;;;;;;7.50;4.05;;;;;;;24.72;73.79;100058.84;6607630;27;32529;-89
2022/08/26 06:40:46;;;;;;;12.25;4.15;;;;;;;24.92;73.27;100067.03;6620097;26;33787;-88
2022/08/26 06:43:50;;;;;;;9.77;3.90;;;;;;;25.11;72.11;100062.56;6634877;26;34614;-88
2022/08/26 06:46:53;;;;;;;6.80;3.85;;;;;;;25.27;69.76;100062.50;6635453;26;33752;-89
2022/08/26 06:49:56;;;;;;;9.43;4.57;;;;;;;25.40;69.71;100053.63;6618444;26;32495;-92
2022/08/26 06:52:59;;;;;;;8.45;4.15;;;;;;;25.51;68.00;100062.69;6635608;26;34548;-92
2022/08/26 06:56:05;;;;;;;9.77;4.30;;;;;;;25.59;65.99;100059.28;6615623;26;33530;-92
2022/08/26 06:59:10;;;;;;;;;;;;;;;25.73;64.89;100057.53;6606733;26;32645;-89
2022/08/26 07:02:14;;;;;;;7.43;3.67;;;;;;;25.85;64.04;100054.44;6631662;26;34940;-88
2022/08/26 07:05:19;;;;;;;9.13;3.72;;;;;;;26.05;63.92;100056.22;6615999;26;33993;-88
2022/08/26 07:08:22;;;;;;;10.30;4.25;;;;;;;26.14;61.58;100056.44;6636940;26;34581;-87
2022/08/26 07:11:25;;;;;;;9.75;3.92;;;;;;;26.30;60.54;100051.63;6635486;26;35459;-88
2022/08/26 07:14:30;;;;;;;5.68;3.42;;;;;;;26.52;59.39;100048.38;6636606;26;35058;-89
2022/08/26 07:17:33;;;;;;;5.65;3.33;;;;;;;26.65;57.02;100044.94;6650428;26;34640;-88
2022/08/26 07:20:41;;;;;;;12.93;3.55;;;;;;;26.87;56.21;100050.75;6640103;26;34252;-88
2022/08/26 07:23:44;;;;;;;7.20;3.03;;;;;;;26.91;55.82;100054.56;6615179;26;32588;-88
2022/08/26 07:26:48;;;;;;;9.30;3.30;;;;;;;26.95;55.64;100048.47;6615892;26;33573;-88
2022/08/26 07:29:56;;;;;;;8.63;3.72;;;;;;;27.06;55.73;100050.81;6615541;26;32416;-88
2022/08/26 07:32:59;;;;;;;7.18;3.62;;;;;;;27.23;55.10;100055.88;6643214;26;34502;-88
2022/08/26 07:36:02;;;;;;;6.50;3.53;;;;;;;27.31;54.44;100046.87;6619172;26;32099;-88
2022/08/26 07:39:05;;;;;;;7.80;3.03;;;;;;;27.41;54.62;100045.09;6639886;26;34561;-88
2022/08/26 07:42:12;;;;;;;8.48;3.42;;;;;;;27.37;53.41;100042.12;6643411;26;33839;-89
2022/08/26 07:45:15;;;;;;;7.15;3.37;;;;;;;27.40;54.05;100044.28;6616585;26;33140;-88
2022/08/26 07:48:18;;;;;;;8.75;3.60;;;;;;;27.59;54.01;100045.13;6635573;26;34419;-88
2022/08/26 07:51:23;;;;;;;5.50;2.90;;;;;;;27.65;53.95;100042.28;6636349;26;34153;-88
2022/08/26 07:54:27;;;;;;;6.95;3.20;;;;;;;27.85;52.80;100035.62;6635403;26;34434;-88
2022/08/26 07:57:30;;;;;;;6.53;3.40;;;;;;;27.91;51.98;100046.31;6635313;26;34236;-88
2022/08/26 08:00:33;;;;;;;6.47;3.20;;;;;;;28.09;51.18;100036.34;6634727;26;33717;-88
2022/08/26 08:03:36;;;;;;;6.97;3.35;;;;;;;28.25;49.58;100032.16;6636080;26;34219;-89
2022/08/26 08:06:40;;;;;;;6.60;2.80;;;;;;;28.49;49.76;100045.06;6615385;26;33539;-88
2022/08/26 08:09:48;;;;;;;6.47;2.80;;;;;;;28.66;48.25;100045.28;6635062;26;34392;-89
2022/08/26 08:12:51;;;;;;;9.00;2.70;;;;;;;28.80;47.55;100041.69;6637528;26;34496;-88
2022/08/26 08:15:54;;;;;;;10.88;3.25;;;;;;;28.79;46.29;100034.53;6641396;26;34454;-88
2022/08/26 08:18:57;;;;;;;7.03;3.35;;;;;;;28.91;46.51;100023.75;6635828;26;34564;-88
2022/08/26 08:22:03;;;;;;;12.57;3.50;;;;;;;28.98;45.48;100028.84;6635639;26;35284;-87
2022/08/26 08:25:19;;;;;;;6.60;3.30;;;;;;;29.12;44.76;100032.47;6614864;26;32449;-88
2022/08/26 08:28:24;;;;;;;6.68;2.80;;;;;;;29.17;45.91;100024.03;6635915;26;33765;-88
2022/08/26 08:31:29;;;;;;;7.78;3.42;;;;;;;29.49;45.42;100027.78;6634893;26;34615;-88
2022/08/26 08:34:53;;;;;;;7.50;3.20;;;;;;;29.43;44.68;100015.97;6613860;26;33811;-86
2022/08/26 08:37:55;;;;;;;10.65;3.00;;;;;;;29.70;45.05;100026.19;6634473;26;34872;-87
2022/08/26 08:40:58;;;;;;;6.10;3.08;;;;;;;29.81;42.98;100012.88;6618287;26;32845;-87
2022/08/26 08:44:14;;;;;;;6.50;3.05;;;;;;;29.85;41.70;100016.66;6633605;26;34042;-87
2022/08/26 08:47:30;;;;;;;7.28;3.00;;;;;;;29.95;42.08;100016.41;6640396;26;35442;-86
2022/08/26 08:50:42;;;;;;;4.07;2.70;;;;;;;30.18;41.86;100000.53;6621336;26;32526;-86
2022/08/26 08:53:48;;;;;;;7.50;2.90;;;;;;;30.32;39.56;100002.44;6643811;26;34038;-87
2022/08/26 08:57:40;;;;;;;7.30;2.83;;;;;;;30.30;38.95;100005.53;6620742;26;32494;-86
2022/08/26 09:01:07;;;;;;;4.90;2.80;;;;;;;30.42;38.56;100002.16;6608204;26;33133;-86
2022/08/26 09:04:29;;;;;;;3.50;2.65;;;;;;;30.50;37.84;100004.97;6634993;26;34458;-86
2022/08/26 09:07:58;;;;;;;5.10;2.83;;;;;;;30.53;38.65;99999.91;6635148;26;34435;-90
2022/08/26 09:11:03;;;;;;;3.72;2.60;;;;;;;30.72;38.44;99994.94;6620642;26;34260;-87
2022/08/26 09:14:07;;;;;;;7.03;3.00;;;;;;;30.76;37.88;99995.91;6634486;26;34184;-86
2022/08/26 09:17:31;;;;;;;4.90;3.12;;;;;;;30.98;37.36;99988.63;6634568;26;33664;-86
2022/08/26 09:20:51;;;;;;;7.25;2.72;;;;;;;31.21;36.40;99994.88;6635735;26;34264;-86
2022/08/26 09:23:55;;;;;;;7.68;2.70;;;;;;;31.10;36.15;99988.84;6647764;26;34248;-86
2022/08/26 09:26:59;;;;;;;9.55;2.67;;;;;;;31.19;36.92;99986.88;6619362;26;33346;-86
2022/08/26 09:30:03;;;;;;;6.45;2.95;;;;;;;31.23;36.41;99981.47;6620957;26;32787;-86
2022/08/26 09:33:09;;;;;;;5.20;3.00;;;;;;;31.33;37.02;99976.41;6619172;26;33970;-86
2022/08/26 09:36:15;;;;;;;7.87;3.25;;;;;;;31.24;35.83;99972.81;6638281;26;34080;-86
2022/08/26 09:39:36;;;;;;;6.62;2.70;;;;;;;31.35;37.02;99968.56;6621747;26;32241;-86
2022/08/26 09:42:39;;;;;;;11.65;2.60;;;;;;;31.61;36.13;99976.09;6635664;26;34155;-86
2022/08/26 09:45:53;;;;;;;5.07;2.90;;;;;;;31.60;35.52;99977.25;6613956;26;33280;-86
2022/08/26 09:49:34;;;;;;;4.72;2.97;;;;;;;31.74;34.20;99971.53;6615207;26;33524;-86
2022/08/26 09:52:38;;;;;;;6.05;2.85;;;;;;;31.86;34.60;99968.88;6634298;26;34625;-87
2022/08/26 09:55:50;;;;;;;9.32;2.95;;;;;;;31.98;34.47;99971.00;6614585;26;33267;-87
2022/08/26 09:58:54;;;;;;;7.85;2.58;;;;;;;32.00;33.51;99974.25;6621355;26;32283;-85
2022/08/26 10:02:19;;;;;;;7.75;2.92;;;;;;;31.91;33.99;99965.94;6618969;26;32488;-85
2022/08/26 10:05:29;;;;;;;8.60;2.60;;;;;;;32.16;34.78;99963.41;6635320;26;33913;-85
2022/08/26 10:08:40;;;;;;;6.15;2.60;;;;;;;32.38;34.17;99957.59;6617074;26;32383;-85
2022/08/26 10:11:52;;;;;;;4.65;2.70;;;;;;;32.54;33.77;99951.50;6634962;26;34357;-85
2022/08/26 10:15:02;;;;;;;8.25;2.65;;;;;;;32.45;35.03;99959.91;6634931;26;34378;-85
2022/08/26 10:18:28;;;;;;;8.77;2.62;;;;;;;32.51;34.35;99956.56;6635589;26;33962;-86
2022/08/26 10:21:51;;;;;;;9.15;2.85;;;;;;;32.62;34.76;99959.00;6635757;26;34320;-86
2022/08/26 10:25:00;;;;;;;9.35;2.75;;;;;;;32.93;34.05;99950.25;6613969;26;32548;-86
2022/08/26 10:28:21;;;;;;;9.93;2.97;;;;;;;32.90;33.66;99953.72;6635633;26;35335;-86
2022/08/26 10:31:32;;;;;;;7.57;2.58;;;;;;;33.00;33.38;99947.81;6637525;26;34337;-86
2022/08/26 10:34:42;;;;;;;6.15;2.87;;;;;;;33.23;33.25;99945.50;6617893;26;33025;-86
2022/08/26 10:37:49;;;;;;;6.87;2.40;;;;;;;33.53;32.58;99948.22;6615974;26;32733;-86
2022/08/26 10:40:59;;;;;;;6.97;2.25;;;;;;;33.48;33.76;99938.03;6636242;26;34130;-86
2022/08/26 10:44:05;;;;;;;7.78;2.92;;;;;;;33.93;31.59;99940.09;6619327;26;32680;-87
2022/08/26 10:47:15;;;;;;;7.90;3.28;;;;;;;34.10;30.74;99927.91;6651346;26;34873;-86
2022/08/26 10:50:30;;;;;;;7.90;2.67;;;;;;;34.38;31.07;99922.47;6649280;26;35515;-86
2022/08/26 10:53:48;;;;;;;5.18;2.55;;;;;;;34.21;31.78;99911.50;6646465;26;34336;-86
2022/08/26 10:57:16;;;;;;;10.55;2.65;;;;;;;34.23;30.95;99914.78;6651834;26;35278;-86
2022/08/26 11:04:18;;;;;;;11.00;2.90;;;;;;;34.38;29.77;99916.87;6646213;26;33725;-86
2022/08/26 11:07:36;;;;;;;7.12;3.05;;;;;;;34.95;28.70;99912.28;6624963;26;34105;-87
2022/08/26 11:10:41;;;;;;;5.05;2.58;;;;;;;35.36;29.32;99904.72;6647648;26;34779;-86
2022/08/26 11:14:00;;;;;;;5.95;2.42;;;;;;;35.78;28.66;99901.50;6644059;26;35086;-86
2022/08/26 11:17:10;;;;;;;8.45;2.95;;;;;;;36.22;28.23;99902.28;6646016;26;34257;-86
2022/08/26 11:20:22;;;;;;;4.57;2.55;;;;;;;36.75;26.50;99901.94;6617631;26;32710;-87
2022/08/26 11:23:37;;;;;;;5.32;2.53;;;;;;;37.38;26.33;99901.69;6615593;26;32193;-87
2022/08/26 11:26:42;;;;;;;7.12;2.53;;;;;;;37.30;25.49;99896.34;6613715;26;33448;-87
2022/08/26 11:30:00;;;;;;;12.07;2.33;;;;;;;37.55;25.10;99892.03;6614736;26;34270;-87
2022/08/26 11:33:04;;;;;;;7.72;2.20;;;;;;;37.89;25.77;99887.44;6633185;26;32438;-87
2022/08/26 11:36:07;;;;;;;4.45;2.47;;;;;;;38.54;23.98;99878.09;6621206;26;33934;-87
2022/08/26 11:39:42;;;;;;;6.07;2.50;;;;;;;38.99;23.07;99879.16;6615020;26;33822;-86
2022/08/26 11:42:55;;;;;;;5.68;2.75;;;;;;;39.98;23.31;99871.37;6636387;26;33585;-87
2022/08/26 11:46:05;;;;;;;5.12;2.12;;;;;;;40.21;21.92;99874.03;6615267;26;32318;-89
2022/08/26 11:49:11;;;;;;;5.78;2.47;;;;;;;41.64;21.82;99867.09;6615199;26;32119;-86
2022/08/26 11:52:21;;;;;;;8.57;2.15;;;;;;;41.45;19.94;99864.59;6634542;26;33841;-86
2022/08/26 11:55:24;;;;;;;4.60;2.17;;;;;;;41.46;20.00;99864.19;6613954;26;32241;-86
2022/08/26 11:58:27;;;;;;;8.93;2.58;;;;;;;42.54;19.28;99867.12;6614224;26;33726;-86
2022/08/26 12:01:42;;;;;;;7.30;3.45;;;;;;;42.62;19.21;99860.19;6613983;26;32960;-86
2022/08/26 12:04:49;;;;;;;3.95;2.25;;;;;;;42.94;18.60;99853.66;6614988;26;32293;-85
2022/08/26 12:07:53;;;;;;;;;;;;;;;42.96;18.24;99849.19;6636629;26;33748;-86
2022/08/26 12:11:09;;;;;;;6.20;1.87;;;;;;;43.73;18.44;99848.37;6616223;26;35327;-86
2022/08/26 12:14:21;;;;;;;8.43;2.25;;;;;;;42.73;17.93;99835.53;6634092;26;34359;-86
2022/08/26 12:17:26;;;;;;;4.03;2.20;;;;;;;43.67;18.71;99836.69;6633344;26;33850;-86
2022/08/26 12:20:45;;;;;;;6.65;2.47;;;;;;;44.80;16.95;99838.84;6614989;26;32374;-86
2022/08/26 12:23:51;;;;;;;6.47;2.22;;;;;;;44.27;17.15;99828.06;6635105;26;34395;-86
2022/08/26 12:27:13;;;;;;;;;;;;;;;43.94;17.25;99829.59;6614977;26;32094;-87
2022/08/26 12:30:23;;;;;;;6.80;2.28;;;;;;;44.27;16.40;99823.19;6636800;26;34196;-86
2022/08/26 12:33:28;;;;;;;8.07;2.35;;;;;;;45.27;17.04;99809.84;6615044;26;32660;-86
2022/08/26 12:36:52;;;;;;;6.40;2.20;;;;;;;44.72;15.82;99819.47;6633840;26;33965;-86
2022/08/26 12:40:33;;;;;;;10.40;2.12;;;;;;;45.76;15.36;99812.34;6633533;26;33805;-86
2022/08/26 12:43:42;;;;;;;4.65;1.77;;;;;;;45.62;16.00;99805.66;6633853;26;34344;-86
2022/08/26 12:46:44;;;;;;;3.78;2.08;;;;;;;45.69;16.40;99807.56;6613293;26;33718;-86
2022/08/26 12:50:32;;;;;;;4.55;2.37;;;;;;;45.61;15.70;99801.22;6634322;26;34483;-86
2022/08/26 12:53:41;;;;;;;4.80;1.80;;;;;;;45.74;15.06;99797.75;6616636;26;34629;-84
2022/08/26 12:56:44;;;;;;;5.68;2.05;;;;;;;45.68;15.03;99792.53;6634406;26;33959;-85
2022/08/26 12:59:47;;;;;;;14.02;2.15;;;;;;;45.61;15.47;99789.03;6635264;26;34487;-85
2022/08/26 13:02:50;;;;;;;3.33;2.00;;;;;;;45.78;14.65;99793.63;6613804;26;32684;-84
2022/08/26 13:06:11;;;;;;;4.93;2.20;;;;;;;46.78;14.15;99785.25;6634446;26;33916;-84
2022/08/26 13:09:17;;;;;;;6.57;2.15;;;;;;;46.12;14.71;99784.88;6635116;26;34260;-85
2022/08/26 13:12:30;;;;;;;6.12;2.17;;;;;;;45.88;14.72;99791.81;6634043;26;35392;-85
2022/08/26 13:15:33;;;;;;;5.47;1.90;;;;;;;46.45;14.38;99778.56;6613383;26;33178;-87
2022/08/26 13:18:37;;;;;;;4.72;1.80;;;;;;;47.09;13.89;99770.72;6613869;26;32123;-86
2022/08/26 13:21:46;;;;;;;8.70;2.53;;;;;;;47.50;14.51;99767.31;6612701;26;32240;-86
2022/08/26 13:24:53;;;;;;;3.47;2.00;;;;;;;47.11;14.02;99759.69;6631982;26;34820;-86
2022/08/26 13:27:58;;;;;;;8.57;2.20;;;;;;;47.31;13.75;99759.63;6634037;26;34787;-86
2022/08/26 13:31:03;;;;;;;6.55;2.80;;;;;;;48.00;13.43;99753.81;6632985;26;35278;-86
2022/08/26 13:34:10;;;;;;;9.88;2.05;;;;;;;46.87;13.72;99759.81;6613993;26;33364;-86
2022/08/26 13:37:14;;;;;;;6.85;2.50;;;;;;;46.13;14.59;99760.88;6636877;26;35172;-85
2022/08/26 13:40:17;;;;;;;11.25;2.55;;;;;;;46.42;14.62;99748.94;6637253;26;34195;-86
2022/08/26 13:43:20;;;;;;;7.85;2.10;;;;;;;47.10;14.09;99749.53;6634290;26;34087;-86
2022/08/26 13:46:22;;;;;;;4.82;1.70;;;;;;;46.04;14.10;99757.00;6634328;26;33981;-86
2022/08/26 13:49:25;;;;;;;6.80;2.28;;;;;;;46.15;14.08;99757.59;6636702;26;34022;-85
2022/08/26 13:52:28;;;;;;;3.53;1.95;;;;;;;45.65;14.14;99747.13;6624043;26;32583;-83
2022/08/26 13:55:32;;;;;;;4.62;1.83;;;;;;;45.63;14.81;99741.84;6644760;26;35509;-83
2022/08/26 13:58:35;;;;;;;9.20;2.17;;;;;;;46.40;14.92;99748.59;6629207;26;32232;-84
2022/08/26 14:01:38;;;;;;;7.53;2.42;;;;;;;45.56;14.93;99736.28;6628836;26;32309;-85
2022/08/26 14:04:41;;;;;;;7.07;2.28;;;;;;;45.51;15.38;99731.09;6647078;26;34574;-83
2022/08/26 14:07:44;;;;;;;5.20;2.08;;;;;;;44.33;15.69;99730.69;6652476;26;34268;-86
2022/08/26 14:10:47;;;;;;;5.10;1.67;;;;;;;43.05;18.23;99729.75;6653175;26;34573;-86
2022/08/26 14:13:50;;;;;;;7.70;2.42;;;;;;;41.20;18.68;99731.78;6616229;26;32617;-86
2022/08/26 14:16:53;;;;;;;6.37;2.25;;;;;;;39.85;19.85;99730.75;6638670;26;34631;-87
2022/08/26 14:20:03;;;;;;;6.95;2.58;;;;;;;38.14;22.16;99742.87;6615275;26;32955;-87
2022/08/26 14:23:05;;;;;;;8.10;2.97;;;;;;;37.33;22.28;99744.78;6615825;26;33642;-88
2022/08/26 14:26:16;;;;;;;6.72;2.45;;;;;;;37.13;23.43;99746.81;6618923;26;32815;-88
2022/08/26 14:29:33;;;;;;;9.15;2.12;;;;;;;36.75;22.94;99742.03;6616452;26;33324;-88
2022/08/26 14:32:39;;;;;;;6.53;2.30;;;;;;;36.45;23.75;99753.00;6636164;26;33833;-87
2022/08/26 14:35:42;;;;;;;3.85;2.30;;;;;;;35.99;24.21;99763.97;6616505;26;32588;-87
2022/08/26 14:38:50;;;;;;;5.40;2.58;;;;;;;35.80;24.34;99757.09;6636759;26;34746;-88
2022/08/26 14:41:55;;;;;;;5.50;2.42;;;;;;;35.77;24.55;99754.22;6589695;26;33610;-87
2022/08/26 14:45:01;;;;;;;6.80;2.30;;;;;;;35.56;24.79;99746.09;6608890;27;33783;-87
2022/08/26 14:48:04;;;;;;;6.60;3.23;;;;;;;35.28;25.07;99748.94;6608017;27;34677;-87
2022/08/26 14:51:07;;;;;;;3.60;2.60;;;;;;;34.86;25.64;99750.19;6608954;27;34056;-87
2022/08/26 14:54:12;;;;;;;6.30;2.60;;;;;;;34.67;25.66;99756.44;6608425;27;34755;-88
2022/08/26 14:57:14;;;;;;;7.18;2.78;;;;;;;34.58;26.02;99741.00;6612387;27;36208;-91
2022/08/26 15:00:19;;;;;;;7.37;2.40;;;;;;;34.52;26.32;99734.81;6588782;27;32545;-91
2022/08/26 15:03:22;;;;;;;7.07;2.87;;;;;;;34.33;26.78;99734.63;6589554;27;34266;-88
2022/08/26 15:06:26;;;;;;;3.10;2.30;;;;;;;34.29;26.60;99734.53;6589998;27;32588;-88
2022/08/26 15:09:32;;;;;;;10.20;2.87;;;;;;;34.16;27.61;99730.12;6612788;27;34566;-88
2022/08/26 15:12:37;;;;;;;13.85;3.08;;;;;;;33.98;28.13;99735.94;6609897;27;34017;-88
2022/08/26 15:15:39;;;;;;;3.40;2.33;;;;;;;33.68;28.04;99732.59;6589878;26;32652;-88
2022/08/26 15:18:43;;;;;;;4.53;2.67;;;;;;;33.56;28.60;99738.19;6589301;27;32602;-88
2022/08/26 15:21:46;;;;;;;4.90;2.60;;;;;;;33.51;28.87;99725.25;6609615;27;34999;-88
2022/08/26 15:24:49;;;;;;;4.87;2.70;;;;;;;33.34;29.40;99728.22;6613968;26;34281;-88
2022/08/26 15:27:55;;;;;;;8.50;2.78;;;;;;;33.06;28.77;99728.88;6610465;27;35396;-87
2022/08/26 15:30:59;;;;;;;5.20;2.35;;;;;;;32.94;29.42;99726.03;6609792;27;34501;-88
2022/08/26 15:34:05;;;;;;;8.63;2.65;;;;;;;32.84;29.51;99724.47;6589277;27;33342;-87
2022/08/26 15:37:08;;;;;;;6.05;3.00;;;;;;;32.68;29.81;99727.09;6591419;27;32675;-88
2022/08/26 15:40:11;;;;;;;4.03;2.40;;;;;;;32.59;30.80;99725.53;6588606;26;33105;-88
2022/08/26 15:43:14;;;;;;;3.78;2.62;;;;;;;32.36;30.57;99725.06;6587433;27;32280;-88
2022/08/26 15:46:31;;;;;;;4.05;2.50;;;;;;;32.37;30.52;99719.13;6607289;27;34178;-87
2022/08/26 15:49:34;;;;;;;4.05;2.37;;;;;;;32.28;31.33;99723.94;6587264;27;33805;-87
2022/08/26 15:52:37;;;;;;;4.68;2.70;;;;;;;32.18;31.33;99718.78;6587394;27;33340;-87
